Time;durP1;ratioP1;P1;durP2;ratioP2;P2;SDS_P1;SDS_P2;PMS_P1;PMS_P2;Temp;Humidity;BMP_temperature;BMP_pressure;BME280_temperature;BME280_humidity;BME280_pressure;Samples;Min_cycle;Max_cycle;Signal;HPM_P1;HPM_P2
2024/02/21 00:00:21;;;;;;;9.63;2.30;;;7.60;99.90;;;;;;4926651;29;20131;-66
2024/02/21 00:02:47;;;;;;;12.50;2.67;;;7.60;99.90;;;;;;4931948;29;20047;-66
2024/02/21 00:05:14;;;;;;;7.82;2.35;;;7.70;99.90;;;;;;4927808;29;20054;-66
2024/02/21 00:07:41;;;;;;;12.13;2.10;;;7.80;99.90;;;;;;4937088;29;20047;-66
2024/02/21 00:10:08;;;;;;;7.57;2.10;;;7.90;99.90;;;;;;4931666;29;20043;-66
2024/02/21 00:12:35;;;;;;;11.82;2.40;;;7.90;99.90;;;;;;4928115;29;20055;-66
2024/02/21 00:15:02;;;;;;;10.65;2.08;;;7.80;99.90;;;;;;4925611;29;20075;-66
2024/02/21 00:17:29;;;;;;;7.75;2.33;;;7.80;99.90;;;;;;4927051;29;20048;-66
2024/02/21 00:19:56;;;;;;;5.72;2.15;;;7.90;99.90;;;;;;4931766;29;21354;-66
2024/02/21 00:22:23;;;;;;;9.68;2.22;;;7.80;99.90;;;;;;4931211;29;20128;-66
2024/02/21 00:24:50;;;;;;;8.32;2.30;;;7.80;99.90;;;;;;4931748;29;20058;-66
2024/02/21 00:27:17;;;;;;;8.35;1.77;;;7.80;99.90;;;;;;4929014;29;20052;-66
2024/02/21 00:29:43;;;;;;;13.35;2.78;;;7.90;99.90;;;;;;4929787;29;20047;-66
2024/02/21 00:32:10;;;;;;;9.48;2.58;;;7.90;99.90;;;;;;4932091;29;20166;-66
2024/02/21 00:34:37;;;;;;;11.27;2.80;;;7.90;99.90;;;;;;4935250;29;20200;-66
2024/02/21 00:37:04;;;;;;;8.63;2.75;;;7.90;99.90;;;;;;4932440;29;20047;-66
2024/02/21 00:39:31;;;;;;;6.57;2.80;;;7.80;99.90;;;;;;4931431;29;20055;-66
2024/02/21 00:41:58;;;;;;;8.77;2.63;;;7.80;99.90;;;;;;4925353;28;20501;-66
2024/02/21 00:44:25;;;;;;;15.30;3.33;;;7.80;99.90;;;;;;4930474;29;20044;-66
2024/02/21 00:46:52;;;;;;;11.65;2.50;;;7.80;99.90;;;;;;4927335;29;20058;-66
2024/02/21 00:49:19;;;;;;;8.55;2.28;;;7.70;99.90;;;;;;4926513;29;20062;-66
2024/02/21 00:51:46;;;;;;;8.25;1.98;;;7.70;99.90;;;;;;4929820;28;20448;-66
2024/02/21 00:54:13;;;;;;;8.05;2.15;;;7.70;99.90;;;;;;4941379;28;20106;-66
2024/02/21 00:56:40;;;;;;;9.25;2.55;;;7.70;99.90;;;;;;4928474;28;20043;-66
2024/02/21 00:59:07;;;;;;;7.07;2.17;;;7.80;99.90;;;;;;4935732;29;20051;-66
2024/02/21 01:01:34;;;;;;;11.70;2.47;;;7.80;99.90;;;;;;4937420;29;20058;-66
2024/02/21 01:04:00;;;;;;;13.27;2.20;;;7.90;99.90;;;;;;4940861;29;20051;-66
2024/02/21 01:06:28;;;;;;;11.23;3.20;;;8.00;99.90;;;;;;4940010;29;20055;-66
2024/02/21 01:08:54;;;;;;;13.93;2.22;;;8.00;99.90;;;;;;4929616;29;20055;-66
2024/02/21 01:11:21;;;;;;;10.70;2.10;;;8.00;99.90;;;;;;4938924;28;20146;-66
2024/02/21 01:13:48;;;;;;;12.02;2.72;;;8.00;99.90;;;;;;4932058;29;20135;-66
2024/02/21 01:16:15;;;;;;;9.27;2.20;;;8.00;99.90;;;;;;4935114;29;20054;-66
2024/02/21 01:18:41;;;;;;;9.30;2.38;;;8.00;99.90;;;;;;4935911;29;20130;-66
2024/02/21 01:21:09;;;;;;;9.43;2.00;;;8.00;99.90;;;;;;4935565;29;20136;-66
2024/02/21 01:23:37;;;;;;;9.25;3.17;;;8.00;99.90;;;;;;4936084;29;20066;-66
2024/02/21 01:26:04;;;;;;;8.15;1.95;;;8.00;99.90;;;;;;4933409;28;20302;-66
2024/02/21 01:28:31;;;;;;;8.10;2.00;;;7.90;99.90;;;;;;4934636;28;20151;-66
2024/02/21 01:30:58;;;;;;;10.18;2.10;;;7.90;99.90;;;;;;4935773;29;20058;-66
2024/02/21 01:33:25;;;;;;;12.75;4.13;;;7.90;99.90;;;;;;4916528;29;20048;-66
2024/02/21 01:35:52;;;;;;;7.50;1.75;;;7.90;99.90;;;;;;4918947;29;20263;-66
2024/02/21 01:38:19;;;;;;;10.13;2.47;;;7.90;99.90;;;;;;4932484;29;20043;-66
2024/02/21 01:40:46;;;;;;;9.90;2.45;;;7.90;99.90;;;;;;4938078;29;20055;-66
2024/02/21 01:43:18;;;;;;;4.38;2.03;;;8.00;99.90;;;;;;4931990;28;20496;-66
2024/02/21 01:45:56;;;;;;;10.40;1.95;;;8.10;99.90;;;;;;4936161;29;20059;-66
2024/02/21 01:48:23;;;;;;;8.70;2.22;;;8.10;99.90;;;;;;4925722;29;20571;-66
2024/02/21 01:50:51;;;;;;;7.82;2.28;;;8.10;99.90;;;;;;4931059;29;20039;-66
2024/02/21 01:53:25;;;;;;;6.57;2.33;;;8.20;99.90;;;;;;4929454;29;20071;-66
2024/02/21 01:55:52;;;;;;;8.20;2.20;;;8.20;99.90;;;;;;4928368;29;20047;-66
2024/02/21 01:58:20;;;;;;;7.20;2.30;;;8.30;99.90;;;;;;4932993;29;20055;-66
2024/02/21 02:00:47;;;;;;;8.18;2.03;;;8.30;99.90;;;;;;4934918;29;20106;-66
2024/02/21 02:03:17;;;;;;;7.90;2.00;;;8.30;99.90;;;;;;4929900;29;20072;-66
2024/02/21 02:05:49;;;;;;;5.25;1.75;;;8.30;99.90;;;;;;4934205;29;20425;-65
2024/02/21 02:08:18;;;;;;;9.10;2.13;;;8.30;99.90;;;;;;4934991;28;20039;-65
2024/02/21 02:10:45;;;;;;;9.13;1.83;;;8.30;99.90;;;;;;4937855;29;20066;-65
2024/02/21 02:13:12;;;;;;;9.75;1.90;;;8.30;99.90;;;;;;4933502;29;20056;-65
2024/02/21 02:15:44;;;;;;;13.82;2.30;;;8.20;99.90;;;;;;4937408;29;20040;-65
2024/02/21 02:18:14;;;;;;;8.80;1.90;;;8.20;99.90;;;;;;4933891;29;20051;-65
2024/02/21 02:20:41;;;;;;;14.87;2.60;;;8.10;99.90;;;;;;4938646;29;20043;-65
2024/02/21 02:23:11;;;;;;;9.80;2.17;;;8.10;99.90;;;;;;4935142;29;20295;-65
2024/02/21 02:25:39;;;;;;;10.60;2.50;;;8.10;99.90;;;;;;4930465;29;20490;-65
2024/02/21 02:28:07;;;;;;;6.53;1.80;;;8.00;99.90;;;;;;4936503;29;20055;-64
2024/02/21 02:30:37;;;;;;;7.20;2.05;;;8.00;99.90;;;;;;4943368;29;20048;-65
2024/02/21 02:33:05;;;;;;;5.68;1.85;;;8.00;99.90;;;;;;4935333;29;20142;-65
2024/02/21 02:35:32;;;;;;;8.30;2.13;;;8.00;99.90;;;;;;4945609;28;20863;-65
2024/02/21 02:37:59;;;;;;;9.70;1.95;;;8.00;99.90;;;;;;4938325;29;20421;-65
2024/02/21 02:40:25;;;;;;;9.45;2.17;;;8.00;99.90;;;;;;4933669;29;20043;-65
2024/02/21 02:42:54;;;;;;;5.63;1.50;;;7.90;99.90;;;;;;4920678;29;20067;-65
2024/02/21 02:45:26;;;;;;;6.15;1.95;;;7.90;99.90;;;;;;4936265;29;20511;-65
2024/02/21 02:47:59;;;;;;;6.28;2.00;;;7.90;99.90;;;;;;4941583;29;20494;-65
2024/02/21 02:50:27;;;;;;;12.32;2.33;;;7.90;99.90;;;;;;4937117;29;20126;-65
2024/02/21 02:52:54;;;;;;;6.97;2.05;;;7.90;99.90;;;;;;4942052;28;20146;-65
2024/02/21 02:55:22;;;;;;;10.52;2.00;;;7.90;99.90;;;;;;4933383;29;20139;-65
2024/02/21 02:57:49;;;;;;;6.13;1.95;;;7.90;99.90;;;;;;4940909;29;20039;-65
2024/02/21 03:00:16;;;;;;;7.90;1.90;;;7.90;99.90;;;;;;4941914;29;20050;-65
2024/02/21 03:02:47;;;;;;;10.27;2.80;;;7.90;99.90;;;;;;4937424;29;20040;-65
2024/02/21 03:05:16;;;;;;;8.90;1.60;;;7.90;99.90;;;;;;4937788;29;20106;-65
2024/02/21 03:07:43;;;;;;;7.72;1.95;;;7.80;99.90;;;;;;4936026;29;20051;-65
2024/02/21 03:10:11;;;;;;;9.45;1.77;;;7.80;99.90;;;;;;4939368;29;20051;-65
2024/02/21 03:12:38;;;;;;;10.35;2.10;;;7.80;99.90;;;;;;4940662;29;20497;-65
2024/02/21 03:15:06;;;;;;;8.90;1.80;;;7.70;99.90;;;;;;4934065;29;20556;-65
2024/02/21 03:17:36;;;;;;;8.52;2.42;;;7.70;99.90;;;;;;4933927;29;20122;-65
2024/02/21 03:20:09;;;;;;;7.50;2.17;;;7.70;99.90;;;;;;4930759;28;20044;-65
2024/02/21 03:22:37;;;;;;;8.32;1.90;;;7.60;99.90;;;;;;4933667;29;20106;-65
2024/02/21 03:25:06;;;;;;;8.13;2.42;;;7.60;99.90;;;;;;4936985;28;20052;-65
2024/02/21 03:27:33;;;;;;;9.75;2.40;;;7.50;99.90;;;;;;4934826;29;20577;-65
2024/02/21 03:29:59;;;;;;;7.13;2.53;;;7.40;99.90;;;;;;4930581;29;20048;-65
2024/02/21 03:32:28;;;;;;;10.77;2.10;;;7.40;99.90;;;;;;4938201;29;20138;-65
2024/02/21 03:34:55;;;;;;;13.07;2.55;;;7.30;99.90;;;;;;4939818;29;20055;-65
2024/02/21 03:37:22;;;;;;;5.70;1.88;;;7.20;99.90;;;;;;4933481;29;20047;-65
2024/02/21 03:39:48;;;;;;;9.95;2.22;;;7.20;99.90;;;;;;4939202;28;20039;-65
2024/02/21 03:42:15;;;;;;;7.18;2.20;;;7.10;99.90;;;;;;4932117;29;20087;-65
2024/02/21 03:44:42;;;;;;;6.07;2.17;;;7.00;99.90;;;;;;4936383;28;20048;-65
2024/02/21 03:47:10;;;;;;;7.75;1.88;;;7.00;99.90;;;;;;4928439;29;20052;-65
2024/02/21 03:49:37;;;;;;;10.68;2.15;;;6.90;99.90;;;;;;4928699;29;20055;-65
2024/02/21 03:52:04;;;;;;;6.63;1.90;;;6.80;99.90;;;;;;4936594;29;20394;-65
2024/02/21 03:54:31;;;;;;;10.20;2.30;;;6.70;99.90;;;;;;4941091;29;20782;-65
2024/02/21 03:56:58;;;;;;;6.97;2.15;;;6.70;99.90;;;;;;4933291;28;20086;-65
2024/02/21 03:59:24;;;;;;;7.72;2.30;;;6.60;99.90;;;;;;4936396;29;20051;-65
2024/02/21 04:01:53;;;;;;;4.97;1.90;;;6.50;99.90;;;;;;4934574;29;20082;-65
2024/02/21 04:04:20;;;;;;;8.85;1.90;;;6.50;99.90;;;;;;4932588;29;20727;-65
2024/02/21 04:06:48;;;;;;;6.95;1.60;;;6.40;99.90;;;;;;4936779;28;20444;-65
2024/02/21 04:09:15;;;;;;;4.43;2.42;;;6.40;99.90;;;;;;4930416;29;20562;-65
2024/02/21 04:11:42;;;;;;;10.95;2.30;;;6.30;99.90;;;;;;4936487;28;20059;-65
2024/02/21 04:14:11;;;;;;;4.68;2.10;;;6.30;99.90;;;;;;4910511;29;20127;-65
2024/02/21 04:16:38;;;;;;;10.60;2.88;;;6.20;99.90;;;;;;4927550;29;22634;-65
2024/02/21 04:19:05;;;;;;;7.18;1.83;;;6.10;99.90;;;;;;4932045;29;20047;-65
2024/02/21 04:21:32;;;;;;;15.05;5.53;;;6.10;99.90;;;;;;4941721;28;20054;-65
2024/02/21 04:23:59;;;;;;;10.40;2.17;;;6.00;99.90;;;;;;4932192;29;20043;-67
2024/02/21 04:26:26;;;;;;;12.48;2.30;;;5.80;99.90;;;;;;4926040;29;20461;-65
2024/02/21 04:28:53;;;;;;;5.43;2.55;;;5.80;99.90;;;;;;4913784;29;20576;-64
2024/02/21 04:31:20;;;;;;;8.13;2.38;;;5.80;99.90;;;;;;4934013;29;20051;-64
2024/02/21 04:33:47;;;;;;;5.75;1.77;;;5.80;99.90;;;;;;4926907;29;20094;-65
2024/02/21 04:36:13;;;;;;;6.43;2.08;;;5.70;99.90;;;;;;4929416;29;20055;-64
2024/02/21 04:38:40;;;;;;;5.95;2.28;;;5.60;99.90;;;;;;4924533;29;20481;-65
2024/02/21 04:41:07;;;;;;;12.45;2.88;;;5.60;99.90;;;;;;4932108;29;20047;-64
2024/02/21 04:43:34;;;;;;;7.15;2.40;;;5.60;99.90;;;;;;4925774;29;20047;-65
2024/02/21 04:46:01;;;;;;;7.13;2.50;;;5.60;99.90;;;;;;4932256;29;20407;-65
2024/02/21 04:48:28;;;;;;;13.32;2.88;;;5.60;99.90;;;;;;4927022;29;20088;-65
2024/02/21 04:50:55;;;;;;;10.45;3.53;;;5.50;99.90;;;;;;4924364;29;20056;-65
2024/02/21 04:53:22;;;;;;;9.43;3.30;;;5.50;99.90;;;;;;4925300;29;20697;-65
2024/02/21 04:55:48;;;;;;;9.40;3.35;;;5.50;99.90;;;;;;4917026;29;20071;-65
2024/02/21 04:58:15;;;;;;;8.25;2.95;;;5.50;99.90;;;;;;4931959;29;20075;-65
2024/02/21 05:00:42;;;;;;;9.45;2.53;;;5.50;99.90;;;;;;4931928;29;20486;-65
2024/02/21 05:03:09;;;;;;;6.50;2.72;;;5.40;99.90;;;;;;4933337;29;20056;-65
2024/02/21 05:05:35;;;;;;;7.43;2.38;;;5.30;99.90;;;;;;4929303;29;20040;-66
2024/02/21 05:08:03;;;;;;;5.05;1.83;;;5.20;99.90;;;;;;4934697;28;20064;-65
2024/02/21 05:10:30;;;;;;;9.30;2.40;;;5.10;99.90;;;;;;4933211;29;20143;-66
2024/02/21 05:12:57;;;;;;;3.92;1.80;;;5.10;99.90;;;;;;4932146;29;20161;-66
2024/02/21 05:15:25;;;;;;;8.73;2.20;;;5.10;99.90;;;;;;4911825;29;20052;-66
2024/02/21 05:17:51;;;;;;;10.05;2.50;;;5.10;99.90;;;;;;4929097;29;20051;-65
2024/02/21 05:20:18;;;;;;;6.95;1.80;;;5.10;99.90;;;;;;4928330;29;20047;-66
2024/02/21 05:22:45;;;;;;;4.30;1.85;;;5.10;99.90;;;;;;4925825;29;20051;-65
2024/02/21 05:25:14;;;;;;;6.13;1.90;;;5.00;99.90;;;;;;4926184;29;20413;-65
2024/02/21 05:27:41;;;;;;;8.98;2.35;;;5.00;99.90;;;;;;4900475;28;1038490;-65
2024/02/21 05:30:09;;;;;;;8.85;2.28;;;5.00;99.90;;;;;;4931563;29;20169;-65
2024/02/21 05:32:39;;;;;;;10.50;2.28;;;4.90;99.90;;;;;;4933824;29;20508;-65
2024/02/21 05:35:06;;;;;;;4.07;1.90;;;4.90;99.90;;;;;;4924679;29;20044;-65
2024/02/21 05:37:34;;;;;;;5.95;2.30;;;5.00;99.90;;;;;;4924136;29;20046;-65
2024/02/21 05:40:00;;;;;;;8.48;2.28;;;5.00;99.90;;;;;;4933241;28;20047;-65
2024/02/21 05:42:27;;;;;;;7.07;2.17;;;5.00;99.90;;;;;;4927016;29;20437;-65
2024/02/21 05:44:54;;;;;;;6.53;2.47;;;5.00;99.90;;;;;;4933097;29;20139;-65
2024/02/21 05:47:20;;;;;;;9.00;2.70;;;5.10;99.90;;;;;;4930667;28;20569;-66
2024/02/21 05:49:48;;;;;;;8.57;2.50;;;5.00;99.90;;;;;;4935229;28;20110;-65
2024/02/21 05:52:15;;;;;;;9.20;2.28;;;5.00;99.90;;;;;;4930581;29;20047;-66
2024/02/21 05:54:42;;;;;;;9.73;2.65;;;5.00;99.90;;;;;;4941904;29;20114;-66
2024/02/21 05:57:09;;;;;;;10.20;2.50;;;5.00;99.90;;;;;;4933119;29;20047;-66
2024/02/21 05:59:40;;;;;;;9.35;2.38;;;5.00;99.90;;;;;;4933111;29;20075;-65
2024/02/21 06:02:06;;;;;;;5.22;2.17;;;5.00;99.90;;;;;;4928544;29;20043;-65
2024/02/21 06:04:33;;;;;;;7.57;2.25;;;5.00;99.90;;;;;;4935772;29;20054;-64
2024/02/21 06:07:01;;;;;;;8.63;2.00;;;5.00;99.90;;;;;;4934733;29;20054;-65
2024/02/21 06:09:28;;;;;;;8.77;2.13;;;5.00;99.90;;;;;;4931908;29;20066;-65
2024/02/21 06:11:55;;;;;;;9.05;2.72;;;4.90;99.90;;;;;;4935323;29;20087;-64
2024/02/21 06:14:22;;;;;;;5.88;2.05;;;4.90;99.90;;;;;;4933028;29;20047;-65
2024/02/21 06:16:48;;;;;;;7.03;2.15;;;4.80;99.90;;;;;;4928267;29;20055;-65
2024/02/21 06:19:15;;;;;;;8.85;2.28;;;4.90;99.90;;;;;;4929043;29;20048;-65
2024/02/21 06:21:42;;;;;;;6.00;2.10;;;4.80;99.90;;;;;;4937386;29;20043;-65
2024/02/21 06:24:09;;;;;;;9.57;1.80;;;4.80;99.90;;;;;;4927072;29;20044;-65
2024/02/21 06:26:36;;;;;;;7.90;1.92;;;4.80;99.90;;;;;;4932339;29;20135;-65
2024/02/21 06:29:03;;;;;;;6.20;1.63;;;4.80;99.90;;;;;;4932485;28;20199;-65
2024/02/21 06:31:31;;;;;;;6.20;2.85;;;4.80;99.90;;;;;;4934970;29;20264;-65
2024/02/21 06:33:58;;;;;;;4.63;1.80;;;4.80;99.90;;;;;;4939009;29;20524;-64
2024/02/21 06:36:25;;;;;;;5.70;1.90;;;4.70;99.90;;;;;;4944034;28;20130;-65
2024/02/21 06:38:52;;;;;;;9.63;2.40;;;4.80;99.90;;;;;;4939786;29;20052;-64
2024/02/21 06:41:19;;;;;;;12.05;2.38;;;4.80;99.90;;;;;;4936353;29;20559;-65
2024/02/21 06:43:46;;;;;;;7.85;3.20;;;4.80;99.90;;;;;;4933255;29;20109;-65
2024/02/21 06:46:28;;;;;;;6.13;2.53;;;4.90;99.90;;;;;;4930705;29;20058;-64
2024/02/21 06:48:56;;;;;;;8.88;1.98;;;5.00;99.90;;;;;;4937551;29;20057;-65
2024/02/21 06:51:27;;;;;;;8.25;2.20;;;5.00;99.90;;;;;;4940440;29;20051;-64
2024/02/21 06:53:54;;;;;;;7.90;2.15;;;5.10;99.90;;;;;;4937303;29;20278;-65
2024/02/21 06:56:26;;;;;;;7.03;2.03;;;5.10;99.90;;;;;;4933295;28;20113;-65
2024/02/21 06:58:53;;;;;;;6.15;2.47;;;5.10;99.90;;;;;;4936764;29;20059;-65
2024/02/21 07:01:20;;;;;;;9.27;2.67;;;5.10;99.90;;;;;;4937655;29;20085;-64
2024/02/21 07:03:47;;;;;;;10.32;3.30;;;5.10;99.90;;;;;;4938947;29;20119;-64
2024/02/21 07:06:14;;;;;;;9.73;2.92;;;5.20;99.90;;;;;;4938105;29;20105;-65
2024/02/21 07:08:41;;;;;;;14.88;3.40;;;5.30;99.90;;;;;;4938036;28;20051;-65
2024/02/21 07:11:07;;;;;;;8.95;2.75;;;5.30;99.90;;;;;;4939804;29;20063;-65
2024/02/21 07:13:34;;;;;;;9.13;3.15;;;5.40;99.90;;;;;;4940772;29;20052;-65
2024/02/21 07:16:01;;;;;;;10.68;2.70;;;5.40;99.90;;;;;;4927619;29;20141;-65
2024/02/21 07:18:28;;;;;;;5.75;3.08;;;5.50;99.90;;;;;;4916145;29;20048;-65
2024/02/21 07:20:55;;;;;;;4.90;2.80;;;5.50;99.90;;;;;;4935862;29;20047;-65
2024/02/21 07:23:22;;;;;;;6.90;3.10;;;5.60;99.90;;;;;;4931275;28;20500;-65
2024/02/21 07:25:48;;;;;;;9.15;2.92;;;5.70;99.90;;;;;;4937548;29;20050;-65
2024/02/21 07:28:16;;;;;;;9.18;5.10;;;5.80;99.90;;;;;;4932169;29;20427;-65
2024/02/21 07:30:43;;;;;;;9.10;5.38;;;5.90;99.90;;;;;;4933101;29;20556;-65
2024/02/21 07:33:10;;;;;;;10.95;5.97;;;6.00;99.90;;;;;;4940879;29;20054;-65
2024/02/21 07:35:37;;;;;;;13.38;4.90;;;6.00;99.90;;;;;;4936351;29;20048;-64
2024/02/21 07:38:05;;;;;;;9.32;4.72;;;6.20;99.90;;;;;;4934541;28;20440;-64
2024/02/21 07:40:32;;;;;;;9.02;3.30;;;6.20;99.90;;;;;;4928816;29;20048;-64
2024/02/21 07:42:59;;;;;;;8.55;3.83;;;6.30;99.90;;;;;;4935644;29;20143;-65
2024/02/21 07:45:26;;;;;;;7.07;3.72;;;6.40;99.90;;;;;;4941139;29;20122;-65
2024/02/21 07:47:53;;;;;;;8.88;5.22;;;6.50;99.90;;;;;;4937637;28;20051;-65
2024/02/21 07:50:20;;;;;;;11.73;4.95;;;6.60;99.90;;;;;;4933919;29;20059;-65
2024/02/21 07:52:47;;;;;;;19.63;6.60;;;6.70;99.90;;;;;;4930831;29;20554;-64
2024/02/21 07:55:13;;;;;;;15.10;6.82;;;6.80;99.90;;;;;;4933100;28;20063;-66
2024/02/21 07:57:41;;;;;;;10.35;3.80;;;6.80;99.90;;;;;;4934067;29;20050;-65
2024/02/21 08:00:15;;;;;;;6.93;3.17;;;6.90;99.90;;;;;;4932609;29;20103;-64
2024/02/21 08:02:43;;;;;;;6.03;2.78;;;7.00;99.90;;;;;;4935758;29;20075;-64
2024/02/21 08:05:12;;;;;;;8.80;2.92;;;7.00;99.90;;;;;;4928106;29;20466;-64
2024/02/21 08:07:39;;;;;;;9.45;2.90;;;7.00;99.90;;;;;;4934010;29;20067;-65
2024/02/21 08:10:09;;;;;;;10.07;3.45;;;7.10;99.90;;;;;;4933881;29;20050;-65
2024/02/21 08:12:36;;;;;;;14.35;3.80;;;7.20;99.90;;;;;;4937284;29;20127;-65
2024/02/21 08:15:04;;;;;;;7.95;3.13;;;7.30;99.90;;;;;;4935341;29;20300;-65
2024/02/21 08:17:30;;;;;;;9.32;3.33;;;7.40;99.90;;;;;;4932373;29;20047;-65
2024/02/21 08:19:58;;;;;;;13.90;4.00;;;7.40;99.90;;;;;;4926315;28;20055;-64
2024/02/21 08:22:24;;;;;;;7.13;3.75;;;7.50;99.90;;;;;;4934774;29;20044;-64
2024/02/21 08:24:53;;;;;;;8.38;3.72;;;7.60;99.90;;;;;;4934721;29;20075;-65
2024/02/21 08:27:20;;;;;;;7.20;3.10;;;7.80;99.90;;;;;;4933936;29;20126;-65
2024/02/21 08:29:47;;;;;;;12.13;4.13;;;7.80;99.90;;;;;;4934754;29;20051;-65
2024/02/21 08:32:13;;;;;;;10.65;3.75;;;7.90;99.90;;;;;;4937079;29;20130;-65
2024/02/21 08:34:40;;;;;;;10.43;3.30;;;8.10;99.90;;;;;;4935763;29;20527;-65
2024/02/21 08:37:08;;;;;;;10.70;3.38;;;8.20;99.90;;;;;;4933186;29;20047;-65
2024/02/21 08:39:34;;;;;;;7.40;3.25;;;8.30;99.90;;;;;;4936234;29;20453;-65
2024/02/21 08:42:01;;;;;;;8.35;2.85;;;8.40;99.90;;;;;;4928451;28;20517;-65
2024/02/21 08:44:28;;;;;;;14.93;4.15;;;8.50;99.90;;;;;;4927732;29;20079;-65
2024/02/21 08:46:55;;;;;;;10.88;3.67;;;8.50;99.90;;;;;;4927111;29;20047;-65
2024/02/21 08:49:26;;;;;;;7.05;3.15;;;8.50;99.90;;;;;;4933638;29;20424;-64
2024/02/21 08:51:57;;;;;;;6.88;3.10;;;8.50;99.90;;;;;;4936568;29;20094;-64
2024/02/21 08:54:24;;;;;;;13.50;3.95;;;8.60;99.90;;;;;;4925192;29;20051;-64
2024/02/21 08:56:51;;;;;;;8.18;3.50;;;8.70;99.90;;;;;;4922398;29;20051;-64
2024/02/21 08:59:17;;;;;;;8.80;3.08;;;8.60;99.90;;;;;;4941887;29;20571;-64
2024/02/21 09:01:44;;;;;;;11.00;3.75;;;8.70;99.90;;;;;;4939519;29;20086;-65
2024/02/21 09:04:11;;;;;;;8.63;3.20;;;8.90;99.90;;;;;;4937796;29;20047;-65
2024/02/21 09:06:41;;;;;;;8.60;3.25;;;8.90;99.90;;;;;;4926426;29;20603;-64
2024/02/21 09:09:09;;;;;;;10.60;3.25;;;9.00;99.90;;;;;;4936336;29;20492;-64
2024/02/21 09:11:37;;;;;;;8.45;3.13;;;9.20;99.90;;;;;;4934051;29;20072;-64
2024/02/21 09:14:04;;;;;;;10.98;3.42;;;9.30;99.90;;;;;;4941588;29;20059;-64
2024/02/21 09:16:32;;;;;;;9.00;3.40;;;9.30;99.90;;;;;;4940279;29;20223;-64
2024/02/21 09:18:59;;;;;;;7.15;3.00;;;9.40;99.90;;;;;;4935864;28;20055;-64
2024/02/21 09:21:27;;;;;;;9.32;3.50;;;9.50;99.90;;;;;;4935122;29;20115;-64
2024/02/21 09:23:54;;;;;;;13.57;3.20;;;9.60;99.90;;;;;;4934228;29;20134;-65
2024/02/21 09:26:25;;;;;;;12.43;3.50;;;9.70;99.90;;;;;;4936510;29;20643;-64
2024/02/21 09:28:52;;;;;;;9.52;3.63;;;9.70;99.90;;;;;;4942457;28;20065;-64
2024/02/21 09:31:19;;;;;;;8.68;3.67;;;9.70;99.90;;;;;;4937217;29;20159;-65
2024/02/21 09:33:46;;;;;;;6.15;2.53;;;9.80;99.90;;;;;;4941113;29;20094;-64
2024/02/21 09:36:13;;;;;;;8.95;3.42;;;9.80;99.90;;;;;;4932752;29;20261;-64
2024/02/21 09:38:41;;;;;;;9.30;3.10;;;9.90;99.90;;;;;;4938763;29;20079;-64
2024/02/21 09:41:18;;;;;;;16.15;3.38;;;10.10;99.90;;;;;;4939572;29;20071;-65
2024/02/21 09:43:53;;;;;;;12.00;3.40;;;10.20;99.90;;;;;;4942457;29;20181;-65
2024/02/21 09:46:32;;;;;;;4.43;2.17;;;10.50;99.90;;;;;;4938083;29;20496;-65
2024/02/21 09:49:08;;;;;;;5.88;2.17;;;10.60;99.90;;;;;;4939969;29;20050;-64
2024/02/21 09:51:37;;;;;;;9.10;2.72;;;10.80;99.90;;;;;;4932750;29;20539;-65
2024/02/21 09:54:04;;;;;;;8.20;2.78;;;10.80;99.90;;;;;;4922248;29;20080;-65
2024/02/21 09:56:42;;;;;;;9.90;3.10;;;10.90;99.90;;;;;;4927917;29;20394;-64
2024/02/21 09:59:11;;;;;;;6.88;2.78;;;11.10;99.90;;;;;;4931410;29;20075;-65
2024/02/21 10:01:37;;;;;;;8.32;3.45;;;11.20;99.90;;;;;;4935179;29;20039;-64
2024/02/21 10:04:04;;;;;;;11.05;3.35;;;11.30;99.90;;;;;;4923027;29;20102;-65
2024/02/21 10:06:32;;;;;;;9.70;3.05;;;11.50;99.90;;;;;;4930966;29;20063;-64
2024/02/21 10:08:59;;;;;;;10.35;3.30;;;11.60;99.90;;;;;;4939508;28;20489;-65
2024/02/21 10:11:26;;;;;;;9.80;2.72;;;11.70;99.90;;;;;;4937417;29;20047;-65
2024/02/21 10:14:09;;;;;;;9.95;2.45;;;11.70;99.90;;;;;;4935193;29;20063;-65
2024/02/21 10:16:37;;;;;;;4.60;2.33;;;11.80;99.90;;;;;;4914979;29;20070;-65
2024/02/21 10:19:04;;;;;;;4.57;2.28;;;11.90;99.90;;;;;;4928225;29;20055;-64
2024/02/21 10:21:31;;;;;;;3.53;1.40;;;12.00;99.90;;;;;;4937428;29;20055;-65
2024/02/21 10:23:58;;;;;;;3.92;1.48;;;12.10;99.90;;;;;;4941066;29;20062;-65
2024/02/21 10:26:24;;;;;;;6.93;1.35;;;12.20;99.90;;;;;;4934160;29;20051;-65
2024/02/21 10:28:51;;;;;;;5.75;1.52;;;12.30;99.90;;;;;;4933230;29;20074;-65
2024/02/21 10:31:27;;;;;;;3.75;1.50;;;12.30;99.90;;;;;;4936764;29;20079;-65
2024/02/21 10:33:55;;;;;;;3.42;1.50;;;12.40;99.90;;;;;;4940317;29;20059;-64
2024/02/21 10:36:22;;;;;;;3.38;1.60;;;12.40;99.90;;;;;;4940120;29;20138;-64
2024/02/21 10:38:49;;;;;;;4.68;2.00;;;12.40;99.90;;;;;;4944425;28;20465;-66
2024/02/21 10:41:17;;;;;;;3.70;1.58;;;12.50;99.90;;;;;;4929128;29;20240;-65
2024/02/21 10:43:49;;;;;;;5.18;1.58;;;12.60;99.90;;;;;;4931923;29;20558;-65
2024/02/21 10:46:19;;;;;;;2.55;1.45;;;12.70;99.90;;;;;;4925717;29;20040;-66
2024/02/21 10:48:47;;;;;;;4.07;0.90;;;12.70;99.90;;;;;;4940009;29;20074;-65
2024/02/21 10:51:19;;;;;;;4.05;1.20;;;12.80;99.90;;;;;;4937118;29;20508;-65
2024/02/21 10:54:21;;;;;;;3.20;0.93;;;12.80;99.90;;;;;;4936152;29;20118;-65
2024/02/21 10:56:49;;;;;;;3.17;1.17;;;12.90;99.90;;;;;;4906343;29;20058;-65
2024/02/21 10:59:17;;;;;;;4.03;1.38;;;13.00;99.90;;;;;;4931728;29;20054;-65
2024/02/21 11:01:44;;;;;;;2.95;1.23;;;12.90;99.90;;;;;;4937130;29;20310;-65
2024/02/21 11:04:12;;;;;;;8.07;1.60;;;12.90;99.90;;;;;;4935166;29;20465;-65
2024/02/21 11:06:41;;;;;;;2.92;1.40;;;12.90;99.90;;;;;;4935211;29;20123;-65
2024/02/21 11:09:10;;;;;;;6.15;1.63;;;13.00;99.90;;;;;;4941004;28;20496;-65
2024/02/21 11:11:39;;;;;;;4.68;1.42;;;13.00;99.90;;;;;;4940225;29;20075;-65
2024/02/21 11:14:17;;;;;;;3.85;1.40;;;13.10;99.90;;;;;;4930983;29;20059;-65
2024/02/21 11:16:45;;;;;;;2.58;1.02;;;13.10;99.90;;;;;;4937672;29;20091;-65
2024/02/21 11:19:28;;;;;;;3.42;1.00;;;13.10;99.90;;;;;;4940830;28;20056;-65
2024/02/21 11:21:57;;;;;;;2.13;0.80;;;13.00;99.90;;;;;;4933703;29;20044;-65
2024/02/21 11:24:29;;;;;;;1.25;0.75;;;13.00;99.90;;;;;;4930078;29;20048;-65
2024/02/21 11:27:08;;;;;;;4.47;1.17;;;13.10;99.90;;;;;;4924529;29;20443;-65
2024/02/21 11:29:43;;;;;;;4.03;1.08;;;13.30;99.90;;;;;;4937412;29;20138;-65
2024/02/21 11:32:13;;;;;;;2.38;0.93;;;13.30;99.90;;;;;;4939639;29;20051;-65
2024/02/21 11:34:40;;;;;;;2.65;1.00;;;13.40;99.90;;;;;;4942233;29;20079;-65
2024/02/21 11:37:17;;;;;;;2.28;0.93;;;13.40;99.90;;;;;;4935337;29;20044;-65
2024/02/21 11:39:44;;;;;;;1.33;0.80;;;13.50;99.90;;;;;;4931601;29;20051;-65
2024/02/21 11:42:12;;;;;;;1.60;0.60;;;13.50;99.90;;;;;;4935158;29;20047;-65
2024/02/21 11:44:40;;;;;;;2.17;0.60;;;13.50;99.90;;;;;;4938486;29;20062;-65
2024/02/21 11:47:07;;;;;;;3.08;0.60;;;13.60;99.90;;;;;;4937896;28;20051;-65
2024/02/21 11:49:41;;;;;;;1.98;0.70;;;13.70;99.90;;;;;;4932331;29;20476;-65
2024/02/21 11:52:08;;;;;;;1.70;1.20;;;13.80;99.90;;;;;;4932435;29;20486;-65
2024/02/21 11:54:35;;;;;;;3.17;0.90;;;13.80;99.90;;;;;;4925328;29;20083;-65
2024/02/21 11:57:02;;;;;;;1.58;0.77;;;13.80;99.90;;;;;;4934123;28;20052;-65
2024/02/21 11:59:32;;;;;;;1.52;0.90;;;13.90;99.90;;;;;;4936755;28;20394;-65
2024/02/21 12:02:03;;;;;;;;;;;14.10;99.90;;;;;;4940465;28;20055;-66
2024/02/21 12:04:30;;;;;;;1.58;0.70;;;14.00;99.90;;;;;;4931918;29;19978;-66
2024/02/21 12:06:58;;;;;;;1.02;0.50;;;14.10;99.90;;;;;;4943153;29;20992;-65
2024/02/21 12:09:25;;;;;;;2.03;0.70;;;14.00;99.90;;;;;;4938782;29;20058;-65
2024/02/21 12:12:04;;;;;;;2.00;0.70;;;14.00;99.90;;;;;;4923713;29;20059;-66
2024/02/21 12:14:33;;;;;;;0.82;0.68;;;14.10;99.90;;;;;;4935931;29;20812;-66
2024/02/21 12:17:01;;;;;;;0.47;0.47;;;14.10;99.90;;;;;;4934820;29;20055;-66
2024/02/21 12:19:32;;;;;;;1.80;1.00;;;14.20;99.90;;;;;;4942085;29;20498;-66
2024/02/21 12:22:00;;;;;;;1.60;0.93;;;14.20;99.90;;;;;;4928561;29;20047;-66
2024/02/21 12:24:28;;;;;;;3.05;0.90;;;14.20;99.90;;;;;;4927913;28;20053;-66
2024/02/21 12:26:58;;;;;;;2.05;1.05;;;14.30;99.90;;;;;;4917481;29;20062;-66
2024/02/21 12:29:25;;;;;;;1.17;1.00;;;14.20;99.90;;;;;;4935692;29;20118;-65
2024/02/21 12:31:53;;;;;;;1.48;1.00;;;14.20;99.90;;;;;;4939227;29;20461;-66
2024/02/21 12:34:22;;;;;;;1.70;0.70;;;14.20;99.90;;;;;;4930298;29;20688;-66
2024/02/21 12:37:04;;;;;;;2.03;0.70;;;14.10;99.90;;;;;;4933076;29;20496;-66
2024/02/21 12:39:31;;;;;;;2.38;1.17;;;14.10;99.90;;;;;;4933084;29;20047;-66
2024/02/21 12:41:58;;;;;;;2.78;1.80;;;14.10;99.90;;;;;;4936435;28;20277;-66
2024/02/21 12:44:25;;;;;;;3.75;1.83;;;14.20;99.90;;;;;;4934343;29;20052;-65
2024/02/21 12:46:54;;;;;;;3.70;0.90;;;14.20;99.90;;;;;;4933751;29;20051;-66
2024/02/21 12:49:21;;;;;;;2.90;1.52;;;14.10;99.90;;;;;;4929909;29;20051;-66
2024/02/21 12:51:49;;;;;;;2.25;1.00;;;14.10;99.90;;;;;;4933085;28;20291;-66
2024/02/21 12:54:16;;;;;;;2.05;0.98;;;14.10;99.90;;;;;;4932289;29;20548;-65
2024/02/21 12:56:42;;;;;;;2.22;1.05;;;14.20;99.90;;;;;;4939172;29;20208;-66